Long Island, Maine
Current Conditions -  °F | °C
As of 12:51 AM on Thursday 18 Dec 2014 (Local Time) from KPWM Reporting Station
Overcast Overcast  
Wind Chill: 39°   Ceiling: 4100
Heat Index: 39°   Visibility: 10mi
Dew Point: 36°   Wind: 0mph
Humidity: 89%   Direction: NA
Pressure: 29.64"   Gusts: NA
Location:  43.68°N, 70.17°W
Report Text: KPWM 180551Z AUTO 00000KT 10SM SCT026 OVC041 04/02 A2964 RMK AO2 RAB0455E08 SLP038 P0000 60000 T00390022 10039 20033 58009
Loading
Personal Weather Stations






























Interactive Weather Map New forecast layout! Learn more

10-Day Weather Forecast

Advertisements
Track Severe Weather on mobile